sensor_id;sensor_type;location;lat;lon;timestamp;pressure;altitude;pressure_sealevel;temperature;humidity
47636;BME280;33364;50.766;15.338;2024-02-04T00:00:30;95120.59;;;5.30;97.11
47636;BME280;33364;50.766;15.338;2024-02-04T00:03:16;95116.69;;;5.32;97.93
47636;BME280;33364;50.766;15.338;2024-02-04T00:05:41;95102.06;;;5.36;98.26
47636;BME280;33364;50.766;15.338;2024-02-04T00:08:07;95104.13;;;5.34;98.14
47636;BME280;33364;50.766;15.338;2024-02-04T00:10:33;95098.16;;;5.39;97.23
47636;BME280;33364;50.766;15.338;2024-02-04T00:13:00;95102.81;;;5.32;97.04
47636;BME280;33364;50.766;15.338;2024-02-04T00:15:25;95095.78;;;5.37;96.92
47636;BME280;33364;50.766;15.338;2024-02-04T00:17:51;95104.44;;;5.38;97.62
47636;BME280;33364;50.766;15.338;2024-02-04T00:20:17;95097.69;;;5.47;97.79
47636;BME280;33364;50.766;15.338;2024-02-04T00:22:43;95101.91;;;5.48;97.48
47636;BME280;33364;50.766;15.338;2024-02-04T00:25:08;95102.94;;;5.47;96.57
47636;BME280;33364;50.766;15.338;2024-02-04T00:27:37;95104.97;;;5.40;96.30
47636;BME280;33364;50.766;15.338;2024-02-04T00:30:03;95117.56;;;5.43;96.39
47636;BME280;33364;50.766;15.338;2024-02-04T00:32:29;95120.75;;;5.50;96.72
47636;BME280;33364;50.766;15.338;2024-02-04T00:34:55;95132.03;;;5.50;95.97
47636;BME280;33364;50.766;15.338;2024-02-04T00:37:21;95123.34;;;5.45;95.71
47636;BME280;33364;50.766;15.338;2024-02-04T00:39:47;95121.50;;;5.45;95.20
47636;BME280;33364;50.766;15.338;2024-02-04T00:42:13;95124.16;;;5.50;94.90
47636;BME280;33364;50.766;15.338;2024-02-04T00:44:38;95129.69;;;5.49;94.96
47636;BME280;33364;50.766;15.338;2024-02-04T00:47:04;95127.31;;;5.47;95.33
47636;BME280;33364;50.766;15.338;2024-02-04T00:49:30;95130.91;;;5.41;94.89
47636;BME280;33364;50.766;15.338;2024-02-04T00:51:56;95116.53;;;5.44;94.46
47636;BME280;33364;50.766;15.338;2024-02-04T00:54:21;95117.56;;;5.43;95.31
47636;BME280;33364;50.766;15.338;2024-02-04T00:56:47;95105.75;;;5.40;95.60
47636;BME280;33364;50.766;15.338;2024-02-04T00:59:13;95110.47;;;5.38;95.22
47636;BME280;33364;50.766;15.338;2024-02-04T01:01:39;95114.97;;;5.43;95.02
47636;BME280;33364;50.766;15.338;2024-02-04T01:04:04;95115.16;;;5.36;94.84
47636;BME280;33364;50.766;15.338;2024-02-04T01:06:30;95113.25;;;5.27;95.23
47636;BME280;33364;50.766;15.338;2024-02-04T01:08:56;95114.31;;;5.31;95.28
47636;BME280;33364;50.766;15.338;2024-02-04T01:11:22;95117.97;;;5.30;95.12
47636;BME280;33364;50.766;15.338;2024-02-04T01:13:48;95109.91;;;5.36;95.23
47636;BME280;33364;50.766;15.338;2024-02-04T01:16:14;95118.06;;;5.40;95.17
47636;BME280;33364;50.766;15.338;2024-02-04T01:18:40;95120.91;;;5.33;94.58
47636;BME280;33364;50.766;15.338;2024-02-04T01:21:06;95108.59;;;5.34;95.03
47636;BME280;33364;50.766;15.338;2024-02-04T01:23:31;95103.94;;;5.41;94.93
47636;BME280;33364;50.766;15.338;2024-02-04T01:25:57;95107.91;;;5.43;95.45
47636;BME280;33364;50.766;15.338;2024-02-04T01:28:23;95110.91;;;5.30;95.05
47636;BME280;33364;50.766;15.338;2024-02-04T01:30:49;95098.41;;;5.37;94.50
47636;BME280;33364;50.766;15.338;2024-02-04T01:33:14;95095.84;;;5.42;94.44
47636;BME280;33364;50.766;15.338;2024-02-04T01:35:40;95097.03;;;5.30;94.66
47636;BME280;33364;50.766;15.338;2024-02-04T01:38:06;95100.16;;;5.27;94.70
47636;BME280;33364;50.766;15.338;2024-02-04T01:40:31;95097.63;;;5.37;94.17
47636;BME280;33364;50.766;15.338;2024-02-04T01:42:57;95096.88;;;5.41;94.31
47636;BME280;33364;50.766;15.338;2024-02-04T01:45:23;95091.88;;;5.40;93.63
47636;BME280;33364;50.766;15.338;2024-02-04T01:47:50;95098.75;;;5.46;93.08
47636;BME280;33364;50.766;15.338;2024-02-04T01:50:16;95114.91;;;5.38;92.74
47636;BME280;33364;50.766;15.338;2024-02-04T01:52:43;95128.53;;;5.40;91.73
47636;BME280;33364;50.766;15.338;2024-02-04T01:55:10;95139.56;;;5.42;90.76
47636;BME280;33364;50.766;15.338;2024-02-04T01:57:36;95134.09;;;5.43;90.52
47636;BME280;33364;50.766;15.338;2024-02-04T02:00:03;95127.06;;;5.49;90.65
47636;BME280;33364;50.766;15.338;2024-02-04T02:02:30;95114.44;;;5.46;91.39
47636;BME280;33364;50.766;15.338;2024-02-04T02:04:56;95132.97;;;5.39;92.06
47636;BME280;33364;50.766;15.338;2024-02-04T02:07:23;95109.41;;;5.39;91.39
47636;BME280;33364;50.766;15.338;2024-02-04T02:09:53;95115.72;;;5.38;91.99
47636;BME280;33364;50.766;15.338;2024-02-04T02:12:35;95109.47;;;5.44;91.36
47636;BME280;33364;50.766;15.338;2024-02-04T02:15:10;95113.66;;;5.45;91.32
47636;BME280;33364;50.766;15.338;2024-02-04T02:17:58;95108.88;;;5.37;90.83
47636;BME280;33364;50.766;15.338;2024-02-04T02:20:45;95094.28;;;5.46;91.62
47636;BME280;33364;50.766;15.338;2024-02-04T02:23:22;95107.16;;;5.48;90.86
47636;BME280;33364;50.766;15.338;2024-02-04T02:25:53;95110.28;;;5.50;90.73
47636;BME280;33364;50.766;15.338;2024-02-04T02:28:20;95107.59;;;5.40;90.11
47636;BME280;33364;50.766;15.338;2024-02-04T02:30:46;95108.88;;;5.37;90.50
47636;BME280;33364;50.766;15.338;2024-02-04T02:33:12;95118.84;;;5.40;91.52
47636;BME280;33364;50.766;15.338;2024-02-04T02:35:38;95116.81;;;5.47;89.57
47636;BME280;33364;50.766;15.338;2024-02-04T02:38:20;95112.81;;;5.40;88.85
47636;BME280;33364;50.766;15.338;2024-02-04T02:41:03;95105.25;;;5.38;89.38
47636;BME280;33364;50.766;15.338;2024-02-04T02:43:29;95111.84;;;5.46;90.14
47636;BME280;33364;50.766;15.338;2024-02-04T02:45:56;95115.16;;;5.36;89.45
47636;BME280;33364;50.766;15.338;2024-02-04T02:48:22;95103.88;;;5.36;89.65
47636;BME280;33364;50.766;15.338;2024-02-04T02:50:49;95108.59;;;5.34;89.00
47636;BME280;33364;50.766;15.338;2024-02-04T02:53:15;95115.41;;;5.35;88.95
47636;BME280;33364;50.766;15.338;2024-02-04T02:55:41;95102.56;;;5.33;88.32
47636;BME280;33364;50.766;15.338;2024-02-04T02:58:07;95109.59;;;5.28;88.73
47636;BME280;33364;50.766;15.338;2024-02-04T03:00:33;95101.13;;;5.21;89.41
47636;BME280;33364;50.766;15.338;2024-02-04T03:02:59;95105.53;;;5.15;89.31
47636;BME280;33364;50.766;15.338;2024-02-04T03:05:25;95101.28;;;5.09;88.68
47636;BME280;33364;50.766;15.338;2024-02-04T03:07:51;95095.31;;;5.14;89.78
47636;BME280;33364;50.766;15.338;2024-02-04T03:10:16;95083.72;;;5.04;90.05
47636;BME280;33364;50.766;15.338;2024-02-04T03:12:42;95066.22;;;5.10;91.16
47636;BME280;33364;50.766;15.338;2024-02-04T03:15:08;95051.13;;;5.17;91.64
47636;BME280;33364;50.766;15.338;2024-02-04T03:17:34;95064.63;;;5.09;91.61
47636;BME280;33364;50.766;15.338;2024-02-04T03:20:00;95073.75;;;5.01;90.85
47636;BME280;33364;50.766;15.338;2024-02-04T03:22:25;95072.16;;;5.00;90.92
47636;BME280;33364;50.766;15.338;2024-02-04T03:24:51;95073.75;;;5.01;91.42
47636;BME280;33364;50.766;15.338;2024-02-04T03:27:18;95060.16;;;5.04;90.94
47636;BME280;33364;50.766;15.338;2024-02-04T03:29:44;95046.06;;;5.10;90.71
47636;BME280;33364;50.766;15.338;2024-02-04T03:32:13;95045.00;;;5.06;90.70
47636;BME280;33364;50.766;15.338;2024-02-04T03:34:41;95056.50;;;5.05;90.82
47636;BME280;33364;50.766;15.338;2024-02-04T03:37:07;95053.28;;;4.98;91.36
47636;BME280;33364;50.766;15.338;2024-02-04T03:39:32;95034.31;;;5.13;91.13
47636;BME280;33364;50.766;15.338;2024-02-04T03:41:58;95046.06;;;5.10;90.95
47636;BME280;33364;50.766;15.338;2024-02-04T03:44:24;95042.03;;;4.98;91.11
47636;BME280;33364;50.766;15.338;2024-02-04T03:46:50;95041.34;;;5.07;92.25
47636;BME280;33364;50.766;15.338;2024-02-04T03:49:17;95031.56;;;4.98;92.77
47636;BME280;33364;50.766;15.338;2024-02-04T03:51:43;95030.94;;;4.86;92.19
47636;BME280;33364;50.766;15.338;2024-02-04T03:54:09;95033.56;;;4.86;93.24
47636;BME280;33364;50.766;15.338;2024-02-04T03:56:34;95020.97;;;4.83;93.68
47636;BME280;33364;50.766;15.338;2024-02-04T03:59:00;95028.63;;;4.89;94.07
47636;BME280;33364;50.766;15.338;2024-02-04T04:01:26;95037.31;;;4.95;93.87
47636;BME280;33364;50.766;15.338;2024-02-04T04:03:51;95046.47;;;4.97;94.21
47636;BME280;33364;50.766;15.338;2024-02-04T04:06:17;95053.69;;;4.85;94.08
47636;BME280;33364;50.766;15.338;2024-02-04T04:08:43;95056.09;;;4.92;93.86
47636;BME280;33364;50.766;15.338;2024-02-04T04:11:10;95058.53;;;4.98;94.32
47636;BME280;33364;50.766;15.338;2024-02-04T04:13:36;95063.22;;;4.96;94.36
47636;BME280;33364;50.766;15.338;2024-02-04T04:16:05;95065.38;;;5.04;94.93
47636;BME280;33364;50.766;15.338;2024-02-04T04:18:31;95053.97;;;4.89;94.16
47636;BME280;33364;50.766;15.338;2024-02-04T04:20:57;95053.69;;;4.85;94.53
47636;BME280;33364;50.766;15.338;2024-02-04T04:23:23;95053.69;;;4.85;94.58
47636;BME280;33364;50.766;15.338;2024-02-04T04:25:48;95060.75;;;4.85;95.00
47636;BME280;33364;50.766;15.338;2024-02-04T04:28:14;95066.00;;;4.85;95.21
47636;BME280;33364;50.766;15.338;2024-02-04T04:30:40;95042.91;;;4.82;94.81
47636;BME280;33364;50.766;15.338;2024-02-04T04:33:06;95047.56;;;4.75;94.51
47636;BME280;33364;50.766;15.338;2024-02-04T04:35:31;95038.34;;;4.67;95.11
47636;BME280;33364;50.766;15.338;2024-02-04T04:37:57;95041.59;;;4.79;94.68
47636;BME280;33364;50.766;15.338;2024-02-04T04:40:23;95038.38;;;4.72;95.11
47636;BME280;33364;50.766;15.338;2024-02-04T04:42:49;95046.97;;;4.67;95.62
47636;BME280;33364;50.766;15.338;2024-02-04T04:45:15;95059.91;;;4.79;96.46
47636;BME280;33364;50.766;15.338;2024-02-04T04:47:41;95051.03;;;4.80;96.58
47636;BME280;33364;50.766;15.338;2024-02-04T04:50:07;95051.47;;;4.72;96.02
47636;BME280;33364;50.766;15.338;2024-02-04T04:52:33;95048.56;;;4.68;95.97
47636;BME280;33364;50.766;15.338;2024-02-04T04:54:59;95049.63;;;4.73;96.20
47636;BME280;33364;50.766;15.338;2024-02-04T04:57:25;95054.25;;;4.65;96.40
47636;BME280;33364;50.766;15.338;2024-02-04T04:59:50;95052.28;;;4.51;96.44
47636;BME280;33364;50.766;15.338;2024-02-04T05:02:16;95053.56;;;4.48;96.52
47636;BME280;33364;50.766;15.338;2024-02-04T05:04:43;95048.75;;;4.62;96.80
47636;BME280;33364;50.766;15.338;2024-02-04T05:07:13;95040.94;;;4.67;96.83
47636;BME280;33364;50.766;15.338;2024-02-04T05:09:39;95045.16;;;4.68;96.70
47636;BME280;33364;50.766;15.338;2024-02-04T05:12:08;95057.44;;;4.67;96.15
47636;BME280;33364;50.766;15.338;2024-02-04T05:14:33;95059.00;;;4.68;96.36
47636;BME280;33364;50.766;15.338;2024-02-04T05:16:59;95054.63;;;4.74;96.50
47636;BME280;33364;50.766;15.338;2024-02-04T05:19:25;95059.31;;;4.72;96.42
47636;BME280;33364;50.766;15.338;2024-02-04T05:21:51;95051.91;;;4.64;96.22
47636;BME280;33364;50.766;15.338;2024-02-04T05:24:17;95048.28;;;4.65;96.43
47636;BME280;33364;50.766;15.338;2024-02-04T05:26:42;95049.28;;;4.64;96.39
47636;BME280;33364;50.766;15.338;2024-02-04T05:29:08;95052.19;;;4.67;96.23
47636;BME280;33364;50.766;15.338;2024-02-04T05:31:40;95053.09;;;4.78;96.14
47636;BME280;33364;50.766;15.338;2024-02-04T05:34:05;95050.44;;;4.73;95.93
47636;BME280;33364;50.766;15.338;2024-02-04T05:36:34;95026.94;;;4.78;96.11
47636;BME280;33364;50.766;15.338;2024-02-04T05:39:11;95042.72;;;4.88;95.90
47636;BME280;33364;50.766;15.338;2024-02-04T05:41:38;95035.38;;;4.85;94.86
47636;BME280;33364;50.766;15.338;2024-02-04T05:44:04;95036.22;;;4.91;94.68
47636;BME280;33364;50.766;15.338;2024-02-04T05:46:30;95037.03;;;4.91;94.64
47636;BME280;33364;50.766;15.338;2024-02-04T05:48:55;95042.50;;;4.90;94.47
47636;BME280;33364;50.766;15.338;2024-02-04T05:51:22;95037.22;;;4.85;93.77
47636;BME280;33364;50.766;15.338;2024-02-04T05:53:47;95046.47;;;4.71;94.12
47636;BME280;33364;50.766;15.338;2024-02-04T05:56:14;95038.47;;;4.82;94.44
47636;BME280;33364;50.766;15.338;2024-02-04T05:58:40;95020.16;;;4.82;94.67
47636;BME280;33364;50.766;15.338;2024-02-04T06:01:06;95006.59;;;4.85;94.55
47636;BME280;33364;50.766;15.338;2024-02-04T06:03:31;95023.81;;;4.81;94.64
47636;BME280;33364;50.766;15.338;2024-02-04T06:05:57;95012.53;;;4.76;94.61
47636;BME280;33364;50.766;15.338;2024-02-04T06:08:23;95019.09;;;4.78;94.28
47636;BME280;33364;50.766;15.338;2024-02-04T06:10:49;95018.84;;;4.80;94.51
47636;BME280;33364;50.766;15.338;2024-02-04T06:13:14;95010.16;;;4.74;94.44
47636;BME280;33364;50.766;15.338;2024-02-04T06:15:40;95008.88;;;4.77;93.16
47636;BME280;33364;50.766;15.338;2024-02-04T06:18:06;95016.47;;;4.78;94.33
47636;BME280;33364;50.766;15.338;2024-02-04T06:20:32;95032.03;;;4.90;95.47
47636;BME280;33364;50.766;15.338;2024-02-04T06:22:57;95031.13;;;4.79;94.94
47636;BME280;33364;50.766;15.338;2024-02-04T06:25:23;95036.41;;;4.84;95.01
47636;BME280;33364;50.766;15.338;2024-02-04T06:27:49;95040.06;;;4.83;95.40
47636;BME280;33364;50.766;15.338;2024-02-04T06:30:15;95049.03;;;4.92;95.52
47636;BME280;33364;50.766;15.338;2024-02-04T06:32:41;95041.16;;;4.87;95.63
47636;BME280;33364;50.766;15.338;2024-02-04T06:35:08;95034.34;;;4.86;96.12
47636;BME280;33364;50.766;15.338;2024-02-04T06:37:33;95032.72;;;4.80;95.62
47636;BME280;33364;50.766;15.338;2024-02-04T06:39:59;95040.72;;;4.95;94.90
47636;BME280;33364;50.766;15.338;2024-02-04T06:42:25;95036.56;;;4.99;94.45
47636;BME280;33364;50.766;15.338;2024-02-04T06:44:51;95051.47;;;4.99;94.76
47636;BME280;33364;50.766;15.338;2024-02-04T06:47:16;95046.13;;;4.89;94.93
47636;BME280;33364;50.766;15.338;2024-02-04T06:49:45;95047.72;;;4.90;95.35
47636;BME280;33364;50.766;15.338;2024-02-04T06:52:11;95039.59;;;4.86;95.01
47636;BME280;33364;50.766;15.338;2024-02-04T06:54:37;95043.25;;;4.85;95.12
47636;BME280;33364;50.766;15.338;2024-02-04T06:57:03;95043.66;;;4.77;95.30
47636;BME280;33364;50.766;15.338;2024-02-04T06:59:29;95044.25;;;4.84;94.98
47636;BME280;33364;50.766;15.338;2024-02-04T07:01:54;95026.84;;;4.95;96.09
47636;BME280;33364;50.766;15.338;2024-02-04T07:04:20;95030.72;;;4.92;95.83
47636;BME280;33364;50.766;15.338;2024-02-04T07:06:50;95020.84;;;4.99;95.80
47636;BME280;33364;50.766;15.338;2024-02-04T07:09:17;95030.78;;;4.97;95.78
47636;BME280;33364;50.766;15.338;2024-02-04T07:11:43;95025.66;;;5.07;95.72
47636;BME280;33364;50.766;15.338;2024-02-04T07:14:09;95023.22;;;5.01;95.66
47636;BME280;33364;50.766;15.338;2024-02-04T07:16:34;95029.75;;;4.98;95.82
47636;BME280;33364;50.766;15.338;2024-02-04T07:19:00;95025.09;;;5.05;95.79
47636;BME280;33364;50.766;15.338;2024-02-04T07:21:26;95026.50;;;4.86;95.88
47636;BME280;33364;50.766;15.338;2024-02-04T07:23:52;95017.16;;;4.95;96.53
47636;BME280;33364;50.766;15.338;2024-02-04T07:26:17;95009.84;;;4.97;96.90
47636;BME280;33364;50.766;15.338;2024-02-04T07:28:43;95018.25;;;4.99;96.60
47636;BME280;33364;50.766;15.338;2024-02-04T07:31:09;95017.06;;;4.85;96.66
47636;BME280;33364;50.766;15.338;2024-02-04T07:33:35;95019.97;;;4.89;96.87
47636;BME280;33364;50.766;15.338;2024-02-04T07:36:00;95020.66;;;5.06;97.66
47636;BME280;33364;50.766;15.338;2024-02-04T07:38:26;95018.84;;;5.06;97.57
47636;BME280;33364;50.766;15.338;2024-02-04T07:40:52;95015.69;;;5.09;97.94
47636;BME280;33364;50.766;15.338;2024-02-04T07:43:18;95027.97;;;5.04;97.42
47636;BME280;33364;50.766;15.338;2024-02-04T07:45:44;95020.09;;;5.04;97.56
47636;BME280;33364;50.766;15.338;2024-02-04T07:48:10;95015.69;;;5.09;97.80
47636;BME280;33364;50.766;15.338;2024-02-04T07:50:36;95013.09;;;5.09;97.79
47636;BME280;33364;50.766;15.338;2024-02-04T07:53:03;95017.31;;;5.16;97.95
47636;BME280;33364;50.766;15.338;2024-02-04T07:55:29;95017.84;;;5.13;97.89
47636;BME280;33364;50.766;15.338;2024-02-04T07:57:55;95019.47;;;5.24;97.84
47636;BME280;33364;50.766;15.338;2024-02-04T08:00:21;95025.44;;;5.14;97.48
47636;BME280;33364;50.766;15.338;2024-02-04T08:02:46;95020.19;;;5.14;97.27
47636;BME280;33364;50.766;15.338;2024-02-04T08:05:13;95013.69;;;5.17;97.43
47636;BME280;33364;50.766;15.338;2024-02-04T08:07:39;95020.53;;;5.23;97.33
47636;BME280;33364;50.766;15.338;2024-02-04T08:10:05;95013.75;;;5.27;97.34
47636;BME280;33364;50.766;15.338;2024-02-04T08:12:31;95003.03;;;5.28;97.60
47636;BME280;33364;50.766;15.338;2024-02-04T08:14:57;95007.00;;;5.36;97.44
47636;BME280;33364;50.766;15.338;2024-02-04T08:17:23;95015.53;;;5.21;96.87
47636;BME280;33364;50.766;15.338;2024-02-04T08:19:48;95017.81;;;5.07;96.27
47636;BME280;33364;50.766;15.338;2024-02-04T08:22:14;95013.59;;;5.06;96.60
47636;BME280;33364;50.766;15.338;2024-02-04T08:24:40;95016.66;;;4.98;96.09
47636;BME280;33364;50.766;15.338;2024-02-04T08:27:06;95020.31;;;4.97;96.12
47636;BME280;33364;50.766;15.338;2024-02-04T08:29:32;95028.72;;;4.99;96.17
47636;BME280;33364;50.766;15.338;2024-02-04T08:31:58;95032.41;;;5.03;96.42
47636;BME280;33364;50.766;15.338;2024-02-04T08:34:23;95032.88;;;4.95;95.98
47636;BME280;33364;50.766;15.338;2024-02-04T08:36:52;95024.59;;;4.82;95.75
47636;BME280;33364;50.766;15.338;2024-02-04T08:39:18;95012.13;;;4.89;96.08
47636;BME280;33364;50.766;15.338;2024-02-04T08:41:43;95017.16;;;4.95;96.43
47636;BME280;33364;50.766;15.338;2024-02-04T08:44:09;95005.63;;;4.91;96.50
47636;BME280;33364;50.766;15.338;2024-02-04T08:46:35;94993.84;;;4.94;96.84
47636;BME280;33364;50.766;15.338;2024-02-04T08:49:00;94985.25;;;4.98;96.92
47636;BME280;33364;50.766;15.338;2024-02-04T08:51:26;94974.88;;;5.08;97.16
47636;BME280;33364;50.766;15.338;2024-02-04T08:53:52;94972.31;;;5.19;97.22
47636;BME280;33364;50.766;15.338;2024-02-04T08:56:18;94979.84;;;5.10;96.71
47636;BME280;33364;50.766;15.338;2024-02-04T08:58:45;94983.22;;;5.05;96.57
47636;BME280;33364;50.766;15.338;2024-02-04T09:01:11;94986.31;;;5.02;96.49
47636;BME280;33364;50.766;15.338;2024-02-04T09:03:37;94984.25;;;5.04;96.82
47636;BME280;33364;50.766;15.338;2024-02-04T09:06:03;94983.31;;;5.16;97.14
47636;BME280;33364;50.766;15.338;2024-02-04T09:08:29;94986.78;;;5.26;97.74
47636;BME280;33364;50.766;15.338;2024-02-04T09:10:55;94987.78;;;5.20;97.33
47636;BME280;33364;50.766;15.338;2024-02-04T09:13:20;95001.69;;;5.26;97.11
47636;BME280;33364;50.766;15.338;2024-02-04T09:15:46;94985.47;;;5.29;97.68
47636;BME280;33364;50.766;15.338;2024-02-04T09:18:12;94987.09;;;5.35;97.65
47636;BME280;33364;50.766;15.338;2024-02-04T09:20:38;94988.72;;;5.41;97.94
47636;BME280;33364;50.766;15.338;2024-02-04T09:23:05;94979.25;;;5.35;98.12
47636;BME280;33364;50.766;15.338;2024-02-04T09:25:30;94983.97;;;5.33;97.80
47636;BME280;33364;50.766;15.338;2024-02-04T09:27:56;94974.84;;;5.45;98.01
47636;BME280;33364;50.766;15.338;2024-02-04T09:30:22;94977.81;;;5.54;98.44
47636;BME280;33364;50.766;15.338;2024-02-04T09:32:48;94974.41;;;5.53;98.35
47636;BME280;33364;50.766;15.338;2024-02-04T09:35:14;94978.91;;;5.63;98.45
47636;BME280;33364;50.766;15.338;2024-02-04T09:37:40;94979.72;;;5.69;98.46
47636;BME280;33364;50.766;15.338;2024-02-04T09:40:06;94977.97;;;5.84;98.53
47636;BME280;33364;50.766;15.338;2024-02-04T09:42:32;94971.19;;;5.88;98.43
47636;BME280;33364;50.766;15.338;2024-02-04T09:44:58;94979.00;;;5.83;97.93
47636;BME280;33364;50.766;15.338;2024-02-04T09:47:25;94970.91;;;5.85;97.70
47636;BME280;33364;50.766;15.338;2024-02-04T09:49:51;94959.09;;;5.82;97.50
47636;BME280;33364;50.766;15.338;2024-02-04T09:52:29;94972.72;;;5.84;97.25
47636;BME280;33364;50.766;15.338;2024-02-04T09:54:59;94962.88;;;5.97;97.85
47636;BME280;33364;50.766;15.338;2024-02-04T09:57:26;94971.22;;;5.93;97.89
47636;BME280;33364;50.766;15.338;2024-02-04T09:59:52;94972.25;;;5.92;97.17
47636;BME280;33364;50.766;15.338;2024-02-04T10:02:18;94975.34;;;5.84;97.20
47636;BME280;33364;50.766;15.338;2024-02-04T10:04:45;94967.00;;;5.87;97.35
47636;BME280;33364;50.766;15.338;2024-02-04T10:07:11;94969.63;;;5.92;97.26
47636;BME280;33364;50.766;15.338;2024-02-04T10:09:39;94954.44;;;5.89;96.90
47636;BME280;33364;50.766;15.338;2024-02-04T10:12:05;94952.91;;;5.99;96.80
47636;BME280;33364;50.766;15.338;2024-02-04T10:14:31;94958.66;;;5.90;96.90
47636;BME280;33364;50.766;15.338;2024-02-04T10:16:57;94949.75;;;5.97;97.17
47636;BME280;33364;50.766;15.338;2024-02-04T10:19:26;94947.13;;;5.91;96.79
47636;BME280;33364;50.766;15.338;2024-02-04T10:22:02;94950.81;;;5.96;96.27
47636;BME280;33364;50.766;15.338;2024-02-04T10:24:28;94950.81;;;5.96;96.50
47636;BME280;33364;50.766;15.338;2024-02-04T10:26:57;94943.19;;;5.94;96.08
47636;BME280;33364;50.766;15.338;2024-02-04T10:29:24;94952.84;;;5.88;96.11
47636;BME280;33364;50.766;15.338;2024-02-04T10:31:56;94930.81;;;5.84;96.06
47636;BME280;33364;50.766;15.338;2024-02-04T10:34:27;94940.31;;;5.90;96.18
47636;BME280;33364;50.766;15.338;2024-02-04T10:36:53;94918.31;;;5.97;96.75
47636;BME280;33364;50.766;15.338;2024-02-04T10:39:19;94932.25;;;6.07;96.92
47636;BME280;33364;50.766;15.338;2024-02-04T10:41:52;94929.34;;;6.09;96.42
47636;BME280;33364;50.766;15.338;2024-02-04T10:44:23;94927.78;;;6.08;96.15
47636;BME280;33364;50.766;15.338;2024-02-04T10:46:51;94942.72;;;6.07;96.48
47636;BME280;33364;50.766;15.338;2024-02-04T10:49:18;94931.44;;;6.07;96.15
47636;BME280;33364;50.766;15.338;2024-02-04T10:51:45;94940.09;;;6.02;95.94
47636;BME280;33364;50.766;15.338;2024-02-04T10:54:14;94937.72;;;6.01;95.42
47636;BME280;33364;50.766;15.338;2024-02-04T10:56:50;94939.81;;;6.04;95.27
47636;BME280;33364;50.766;15.338;2024-02-04T10:59:20;94931.47;;;6.12;95.32
47636;BME280;33364;50.766;15.338;2024-02-04T11:01:47;94940.91;;;6.08;95.67
47636;BME280;33364;50.766;15.338;2024-02-04T11:04:17;94944.56;;;6.07;94.78
47636;BME280;33364;50.766;15.338;2024-02-04T11:06:44;94939.81;;;6.09;94.82
47636;BME280;33364;50.766;15.338;2024-02-04T11:09:11;94931.44;;;6.07;94.49
47636;BME280;33364;50.766;15.338;2024-02-04T11:11:38;94919.41;;;6.11;94.69
47636;BME280;33364;50.766;15.338;2024-02-04T11:14:09;94906.28;;;6.11;94.43
47636;BME280;33364;50.766;15.338;2024-02-04T11:16:50;94901.56;;;6.03;95.27
47636;BME280;33364;50.766;15.338;2024-02-04T11:25:31;94893.44;;;6.09;92.90
47636;BME280;33364;50.766;15.338;2024-02-04T11:28:03;94881.88;;;6.00;93.83
47636;BME280;33364;50.766;15.338;2024-02-04T11:30:33;94884.25;;;6.07;93.42
47636;BME280;33364;50.766;15.338;2024-02-04T11:33:00;94883.22;;;6.03;92.62
47636;BME280;33364;50.766;15.338;2024-02-04T11:35:26;94894.72;;;5.91;93.29
47636;BME280;33364;50.766;15.338;2024-02-04T11:37:53;94892.59;;;5.93;93.96
47636;BME280;33364;50.766;15.338;2024-02-04T11:40:21;94887.66;;;5.97;93.75
47636;BME280;33364;50.766;15.338;2024-02-04T11:42:49;94887.53;;;5.82;92.07
47636;BME280;33364;50.766;15.338;2024-02-04T11:45:15;94895.16;;;5.78;91.68
47636;BME280;33364;50.766;15.338;2024-02-04T11:47:42;94878.63;;;5.78;93.02
47636;BME280;33364;50.766;15.338;2024-02-04T11:50:08;94872.91;;;5.81;93.96
47636;BME280;33364;50.766;15.338;2024-02-04T11:52:34;94863.94;;;5.72;93.38
47636;BME280;33364;50.766;15.338;2024-02-04T11:55:01;94867.09;;;5.74;93.88
47636;BME280;33364;50.766;15.338;2024-02-04T11:57:27;94863.16;;;5.71;94.92
47636;BME280;33364;50.766;15.338;2024-02-04T11:59:54;94864.47;;;5.74;95.15
47636;BME280;33364;50.766;15.338;2024-02-04T12:02:20;94858.44;;;5.68;95.33
47636;BME280;33364;50.766;15.338;2024-02-04T12:04:50;94869.44;;;5.65;95.90
47636;BME280;33364;50.766;15.338;2024-02-04T12:07:16;94859.47;;;5.67;96.02
47636;BME280;33364;50.766;15.338;2024-02-04T12:09:43;94867.84;;;5.64;95.88
47636;BME280;33364;50.766;15.338;2024-02-04T12:12:09;94863.69;;;5.73;96.58
47636;BME280;33364;50.766;15.338;2024-02-04T12:14:35;94842.19;;;5.71;96.14
47636;BME280;33364;50.766;15.338;2024-02-04T12:17:08;94833.78;;;5.64;95.78
47636;BME280;33364;50.766;15.338;2024-02-04T12:19:36;94845.56;;;5.67;96.38
47636;BME280;33364;50.766;15.338;2024-02-04T12:22:02;94821.19;;;5.61;96.42
47636;BME280;33364;50.766;15.338;2024-02-04T12:24:33;94831.41;;;5.58;96.04
47636;BME280;33364;50.766;15.338;2024-02-04T12:26:59;94841.13;;;5.62;96.58
47636;BME280;33364;50.766;15.338;2024-02-04T12:29:25;94844.50;;;5.58;96.53
47636;BME280;33364;50.766;15.338;2024-02-04T12:32:01;94830.13;;;5.65;97.29
47636;BME280;33364;50.766;15.338;2024-02-04T12:34:29;94817.03;;;5.65;97.58
47636;BME280;33364;50.766;15.338;2024-02-04T12:36:58;94800.81;;;5.78;98.18
47636;BME280;33364;50.766;15.338;2024-02-04T12:39:28;94790.34;;;5.78;98.08
47636;BME280;33364;50.766;15.338;2024-02-04T12:41:54;94798.75;;;5.80;98.46
47636;BME280;33364;50.766;15.338;2024-02-04T12:44:21;94791.91;;;5.79;98.28
47636;BME280;33364;50.766;15.338;2024-02-04T12:46:50;94790.06;;;5.65;97.72
47636;BME280;33364;50.766;15.338;2024-02-04T12:49:19;94770.91;;;5.59;97.96
47636;BME280;33364;50.766;15.338;2024-02-04T12:51:46;94786.66;;;5.64;98.46
47636;BME280;33364;50.766;15.338;2024-02-04T12:54:12;94776.69;;;5.71;99.06
47636;BME280;33364;50.766;15.338;2024-02-04T12:56:45;94782.47;;;5.78;98.92
47636;BME280;33364;50.766;15.338;2024-02-04T12:59:30;94774.38;;;5.75;99.05
47636;BME280;33364;50.766;15.338;2024-02-04T13:02:01;94767.31;;;5.85;98.56
47636;BME280;33364;50.766;15.338;2024-02-04T13:04:34;94753.94;;;5.87;98.01